Hauptseite
METAR-TAF:

METAR-TAF

Flughäfen :

Hannover, Deutschland

Flughafen Hannover-Langenhagen

Breite: 52-28N, Länge: 009-41E, Höhe: 56 m

Beobachtung

Neuester Wetterbericht von vor 38 Minuten, um 01:20 UTC
Wind 6 kt aus West/Südwest
Temperatur 11°C
Luftfeuchtigkeit 87%
Luftdruck 1018 hPa
Sichtweite: 6000 m

METAR: EDDV 200120Z 25006KT 6000 NSC 11/09 Q1018

Zeit: 03:58 (01:58 UTC)

Prognose

Neuester Wetterbericht von vor 2 Stunden und 58 Minuten, um 23:00 UTC
Gültige Prognose vom 20 um 00 UTC bis 20 um 24 UTC
Wind 5 kt aus West
Sichtweite 10 km oder mehr
Durchbrochene Bewölkung in der Höhe von 4500 ft
Zeitweise
vom 20 um 06 UTC bis 20 um 10 UTC
Durchbrochene Bewölkung in der Höhe von 1200 ft
Übergehend zu
vom 20 um 16 UTC bis 20 um 18 UTC
Wind 3 kt aus Süd/Südwest

TAF: EDDV 192300Z 2000/2024 26005KT 9999 BKN045 TEMPO 2006/2010 BKN012 BECMG 2016/2018 20003KT

Wetterbeobachtungen und Prognosen von mehr als 4000 Flughäfen (METAR und TAF Bericht).

Die verfügbaren Stationen werden durch gelbe und rote Markierungen auf der Karte dargestellt.

Führen Sie die Maus auf sie, um den Namen der Station zu sehen.

Darauf klicken, um die Beobachtung von Wetterbeobachtungen und Prognosen zu sehen.

Um die Karte zu ändern : klicken Sie auf den grünen Tasten mit einem schwarzen Kreuz Zum Vergrößern, auf den grünen Button mit einem Gedankenstrich zu verkleinern, oder auf die grünen Pfeile für benachbarte Karten.


METAR-TAF: